Time;durP1;ratioP1;P1;durP2;ratioP2;P2;SDS_P1;SDS_P2;PMS_P1;PMS_P2;Temp;Humidity;BMP_temperature;BMP_pressure;BME280_temperature;BME280_humidity;BME280_pressure;Samples;Min_cycle;Max_cycle;Signal;HPM_P1;HPM_P2
2023/03/12 00:00:27;;;;;;;4.30;1.70;;;;;;;;;;5090401;28;20048;-72
2023/03/12 00:03:00;;;;;;;2.60;1.30;;;;;;;;;;5090144;28;20495;-73
2023/03/12 00:05:30;;;;;;;3.53;1.45;;;;;;;;;;5089495;28;20829;-74
2023/03/12 00:08:00;;;;;;;18.90;1.98;;;;;;;;;;5088966;28;20067;-74
2023/03/12 00:10:30;;;;;;;3.10;1.35;;;;;;;;;;5089971;28;20043;-73
2023/03/12 00:13:01;;;;;;;2.55;1.50;;;;;;;;;;5090045;28;20051;-73
2023/03/12 00:15:36;;;;;;;3.72;1.42;;;;;;;;;;5089357;28;20044;-73
2023/03/12 00:18:07;;;;;;;7.50;2.40;;;;;;;;;;5089165;28;20526;-75
2023/03/12 00:20:37;;;;;;;2.55;1.55;;;;;;;;;;5089743;28;20044;-74
2023/03/12 00:23:07;;;;;;;2.58;1.35;;;;;;;;;;5089766;28;20040;-74
2023/03/12 00:25:38;;;;;;;1.63;1.05;;;;;;;;;;5071159;28;20513;-74
2023/03/12 00:28:08;;;;;;;2.50;1.45;;;;;;;;;;5088754;28;20048;-73
2023/03/12 00:30:39;;;;;;;5.85;1.35;;;;;;;;;;5089143;28;20048;-74
2023/03/12 00:33:10;;;;;;;3.45;1.50;;;;;;;;;;5088976;28;20040;-73
2023/03/12 00:35:41;;;;;;;3.92;1.60;;;;;;;;;;5087379;28;20052;-75
2023/03/12 00:38:13;;;;;;;4.80;1.52;;;;;;;;;;5089352;28;20036;-74
2023/03/12 00:40:43;;;;;;;2.25;1.42;;;;;;;;;;5088926;28;20056;-73
2023/03/12 00:43:14;;;;;;;4.50;1.30;;;;;;;;;;5089270;28;20040;-75
2023/03/12 00:45:44;;;;;;;2.42;1.08;;;;;;;;;;5071035;28;20056;-73
2023/03/12 00:48:16;;;;;;;2.88;1.02;;;;;;;;;;5088801;28;20440;-75
2023/03/12 00:50:47;;;;;;;2.45;1.20;;;;;;;;;;5088916;28;20043;-74
2023/03/12 00:53:17;;;;;;;2.58;1.35;;;;;;;;;;5087658;28;20517;-75
2023/03/12 00:55:47;;;;;;;4.05;0.90;;;;;;;;;;5088850;28;20577;-76
2023/03/12 00:58:17;;;;;;;1.67;1.10;;;;;;;;;;5088921;28;20055;-73
2023/03/12 01:00:49;;;;;;;4.00;1.10;;;;;;;;;;5086742;28;20081;-76
2023/03/12 01:03:20;;;;;;;5.25;1.13;;;;;;;;;;5089334;28;20044;-73
2023/03/12 01:05:53;;;;;;;8.57;1.35;;;;;;;;;;5088880;28;20577;-73
2023/03/12 01:08:24;;;;;;;2.55;1.17;;;;;;;;;;5077651;28;20036;-74
2023/03/12 01:10:55;;;;;;;1.95;1.20;;;;;;;;;;5054923;28;20049;-73
2023/03/12 01:13:26;;;;;;;4.57;1.67;;;;;;;;;;5050249;28;20403;-73
2023/03/12 01:15:57;;;;;;;1.80;1.30;;;;;;;;;;5067867;28;20040;-74
2023/03/12 01:18:27;;;;;;;2.72;0.90;;;;;;;;;;5067939;28;20049;-73
2023/03/12 01:20:58;;;;;;;1.67;1.02;;;;;;;;;;5066907;28;20060;-73
2023/03/12 01:23:29;;;;;;;1.95;1.10;;;;;;;;;;5050340;28;20052;-74
2023/03/12 01:26:00;;;;;;;3.22;1.13;;;;;;;;;;5049224;28;20056;-73
2023/03/12 01:28:30;;;;;;;2.08;1.00;;;;;;;;;;5067736;28;20056;-74
2023/03/12 01:31:13;;;;;;;2.35;1.10;;;;;;;;;;5067016;28;20508;-74
2023/03/12 01:33:49;;;;;;;6.80;1.00;;;;;;;;;;5049436;28;20057;-74
2023/03/12 01:36:25;;;;;;;3.88;1.08;;;;;;;;;;5067478;28;20044;-74
2023/03/12 01:38:57;;;;;;;2.15;1.10;;;;;;;;;;5049308;28;20048;-73
2023/03/12 01:41:32;;;;;;;2.55;1.08;;;;;;;;;;5067847;28;20541;-73
2023/03/12 01:44:05;;;;;;;3.22;1.23;;;;;;;;;;5049496;28;20053;-74
2023/03/12 01:46:37;;;;;;;1.45;1.02;;;;;;;;;;5048705;28;20059;-76
2023/03/12 01:49:21;;;;;;;1.52;1.23;;;;;;;;;;5068277;28;20044;-73
2023/03/12 01:51:58;;;;;;;2.38;1.10;;;;;;;;;;5049080;28;20063;-73
2023/03/12 01:54:58;;;;;;;1.88;1.00;;;;;;;;;;5055591;28;20048;-73
2023/03/12 01:57:37;;;;;;;5.18;1.30;;;;;;;;;;5092581;28;20055;-73
2023/03/12 02:00:12;;;;;;;1.45;0.95;;;;;;;;;;5060861;28;20044;-73
2023/03/12 02:02:44;;;;;;;;;;;;;;;;;;5067936;28;20090;-72
2023/03/12 02:05:54;;;;;;;0.93;0.85;;;;;;;;;;5067330;28;19935;-75
2023/03/12 02:08:26;;;;;;;9.60;1.45;;;;;;;;;;5087175;28;20048;-74
2023/03/12 02:10:55;;;;;;;2.38;1.23;;;;;;;;;;5087470;28;20498;-77
2023/03/12 02:13:26;;;;;;;0.90;0.80;;;;;;;;;;5069503;28;20059;-74
2023/03/12 02:15:57;;;;;;;1.52;0.88;;;;;;;;;;5068456;28;20073;-74
2023/03/12 02:18:28;;;;;;;2.58;0.90;;;;;;;;;;5068732;28;20048;-73
2023/03/12 02:21:17;;;;;;;2.92;1.00;;;;;;;;;;5087247;28;20048;-74
2023/03/12 02:24:10;;;;;;;2.03;0.88;;;;;;;;;;5087516;28;20044;-73
2023/03/12 02:26:41;;;;;;;1.92;1.00;;;;;;;;;;5068719;28;20056;-73
2023/03/12 02:29:12;;;;;;;4.70;1.10;;;;;;;;;;5068970;28;20063;-73
2023/03/12 02:31:49;;;;;;;1.67;0.90;;;;;;;;;;5087243;28;20052;-74
2023/03/12 02:34:20;;;;;;;2.70;1.05;;;;;;;;;;5069409;28;20521;-74
2023/03/12 02:36:50;;;;;;;1.73;0.77;;;;;;;;;;5087314;28;20055;-73
2023/03/12 02:39:22;;;;;;;1.80;1.00;;;;;;;;;;5087690;28;20051;-73
2023/03/12 02:41:56;;;;;;;5.43;0.90;;;;;;;;;;5068619;28;20552;-73
2023/03/12 02:44:30;;;;;;;1.10;1.00;;;;;;;;;;5068035;28;21000;-73
2023/03/12 02:47:01;;;;;;;2.17;0.65;;;;;;;;;;5068033;28;20044;-73
2023/03/12 02:49:34;;;;;;;1.02;0.90;;;;;;;;;;5068670;28;20052;-73
2023/03/12 02:52:05;;;;;;;0.90;0.90;;;;;;;;;;5086745;28;20426;-73
2023/03/12 02:54:34;;;;;;;7.78;1.05;;;;;;;;;;5067490;28;20052;-73
2023/03/12 02:57:05;;;;;;;2.83;1.00;;;;;;;;;;5068359;28;20063;-74
2023/03/12 02:59:36;;;;;;;4.35;0.98;;;;;;;;;;5068311;28;20055;-73
2023/03/12 03:02:11;;;;;;;1.70;1.00;;;;;;;;;;5068035;28;20044;-78
2023/03/12 03:04:42;;;;;;;1.83;1.02;;;;;;;;;;5068598;28;20056;-74
2023/03/12 03:07:13;;;;;;;2.20;1.20;;;;;;;;;;5067484;28;20503;-73
2023/03/12 03:09:45;;;;;;;2.00;1.15;;;;;;;;;;5067452;28;20561;-74
2023/03/12 03:12:16;;;;;;;4.00;0.90;;;;;;;;;;5086214;28;20070;-73
2023/03/12 03:14:47;;;;;;;4.13;0.73;;;;;;;;;;5086583;28;20380;-77
2023/03/12 03:17:16;;;;;;;3.88;1.10;;;;;;;;;;5068181;28;20056;-73
2023/03/12 03:19:47;;;;;;;3.88;1.02;;;;;;;;;;5086132;28;20047;-74
2023/03/12 03:22:19;;;;;;;1.27;0.90;;;;;;;;;;5067484;28;20052;-74
2023/03/12 03:24:51;;;;;;;3.97;1.13;;;;;;;;;;5086964;28;20044;-74
2023/03/12 03:27:21;;;;;;;1.70;0.88;;;;;;;;;;5068267;28;20523;-73
2023/03/12 03:29:52;;;;;;;2.75;1.20;;;;;;;;;;5068656;28;20056;-72
2023/03/12 03:32:24;;;;;;;2.00;1.10;;;;;;;;;;5067985;28;20426;-72
2023/03/12 03:34:54;;;;;;;2.60;0.90;;;;;;;;;;5068554;28;20693;-75
2023/03/12 03:37:25;;;;;;;1.20;0.80;;;;;;;;;;5051884;28;20060;-74
2023/03/12 03:39:56;;;;;;;2.00;1.20;;;;;;;;;;5067837;28;20055;-74
2023/03/12 03:42:27;;;;;;;2.28;1.00;;;;;;;;;;5067860;28;20575;-74
2023/03/12 03:44:58;;;;;;;3.22;0.98;;;;;;;;;;5067470;28;20841;-74
2023/03/12 03:47:28;;;;;;;1.25;1.13;;;;;;;;;;5086339;28;20048;-73
2023/03/12 03:49:58;;;;;;;1.90;0.98;;;;;;;;;;5067886;28;20056;-73
2023/03/12 03:52:31;;;;;;;2.42;1.10;;;;;;;;;;5067842;28;20052;-75
2023/03/12 03:55:02;;;;;;;2.53;1.23;;;;;;;;;;5051996;28;20930;-76
2023/03/12 03:57:32;;;;;;;2.58;0.70;;;;;;;;;;5051621;28;20518;-76
2023/03/12 04:00:11;;;;;;;1.33;1.00;;;;;;;;;;5068163;28;20056;-72
2023/03/12 04:02:44;;;;;;;1.02;0.80;;;;;;;;;;5067112;28;20063;-74
2023/03/12 04:05:18;;;;;;;3.45;0.90;;;;;;;;;;5100796;28;20048;-73
2023/03/12 04:07:52;;;;;;;1.73;0.98;;;;;;;;;;5067428;28;20525;-73
2023/03/12 04:10:25;;;;;;;1.15;0.93;;;;;;;;;;5070758;28;20078;-73
2023/03/12 04:12:56;;;;;;;2.33;1.20;;;;;;;;;;5071388;28;20056;-74
2023/03/12 04:15:27;;;;;;;6.22;1.85;;;;;;;;;;5071381;28;20056;-73
2023/03/12 04:17:58;;;;;;;4.80;2.38;;;;;;;;;;5071107;28;20052;-73
2023/03/12 04:20:29;;;;;;;3.15;1.20;;;;;;;;;;5072157;28;20390;-74
2023/03/12 04:23:00;;;;;;;1.55;1.02;;;;;;;;;;5071361;28;20506;-72
2023/03/12 04:25:31;;;;;;;4.93;1.52;;;;;;;;;;5089664;28;20048;-73
2023/03/12 04:28:01;;;;;;;1.55;1.00;;;;;;;;;;5070754;28;20048;-73
2023/03/12 04:30:32;;;;;;;1.42;1.23;;;;;;;;;;5070268;28;20056;-73
2023/03/12 04:33:02;;;;;;;4.40;1.33;;;;;;;;;;5089670;28;20410;-74
2023/03/12 04:35:33;;;;;;;2.10;0.90;;;;;;;;;;5071428;28;20051;-73
2023/03/12 04:38:04;;;;;;;1.50;0.80;;;;;;;;;;5089408;28;20043;-74
2023/03/12 04:40:34;;;;;;;1.63;0.85;;;;;;;;;;5070803;28;20052;-73
2023/03/12 04:43:05;;;;;;;1.38;0.93;;;;;;;;;;5070791;28;20341;-74
2023/03/12 04:45:35;;;;;;;1.40;0.98;;;;;;;;;;5070156;28;20055;-73
2023/03/12 04:48:06;;;;;;;1.25;1.10;;;;;;;;;;5070623;28;21100;-73
2023/03/12 04:50:35;;;;;;;1.65;1.17;;;;;;;;;;5088915;28;20044;-76
2023/03/12 04:53:06;;;;;;;3.72;1.40;;;;;;;;;;5088983;28;20044;-74
2023/03/12 04:55:36;;;;;;;5.53;1.55;;;;;;;;;;5070552;28;20072;-73
2023/03/12 04:58:07;;;;;;;1.23;0.80;;;;;;;;;;5088183;28;20549;-74
2023/03/12 05:00:40;;;;;;;2.03;0.80;;;;;;;;;;5054621;28;20051;-74
2023/03/12 05:03:12;;;;;;;8.32;1.17;;;;;;;;;;5070561;28;20052;-73
2023/03/12 05:05:42;;;;;;;5.57;1.00;;;;;;;;;;5103634;28;20056;-74
2023/03/12 05:08:14;;;;;;;5.22;1.40;;;;;;;;;;5070868;28;20051;-75
2023/03/12 05:10:46;;;;;;;1.38;1.20;;;;;;;;;;5069577;28;20052;-73
2023/03/12 05:13:20;;;;;;;2.50;0.90;;;;;;;;;;5070661;28;20052;-73
2023/03/12 05:15:55;;;;;;;1.88;0.85;;;;;;;;;;5070202;28;20058;-73
2023/03/12 05:18:26;;;;;;;3.03;1.00;;;;;;;;;;5086213;28;20054;-77
2023/03/12 05:21:01;;;;;;;1.75;1.20;;;;;;;;;;5068930;28;20048;-74
2023/03/12 05:23:32;;;;;;;4.72;1.20;;;;;;;;;;5069846;28;20048;-73
2023/03/12 05:26:03;;;;;;;1.20;1.00;;;;;;;;;;5069668;28;20052;-73
2023/03/12 05:28:35;;;;;;;4.72;1.33;;;;;;;;;;5070243;28;20510;-74
2023/03/12 05:31:09;;;;;;;2.33;1.30;;;;;;;;;;5070098;28;20507;-73
2023/03/12 05:33:40;;;;;;;4.47;1.98;;;;;;;;;;5070607;28;20055;-74
2023/03/12 05:36:11;;;;;;;4.53;1.17;;;;;;;;;;5069547;28;20052;-74
2023/03/12 05:38:42;;;;;;;2.63;1.20;;;;;;;;;;5069744;28;20052;-73
2023/03/12 05:41:21;;;;;;;3.90;1.20;;;;;;;;;;5069253;28;20047;-74
2023/03/12 05:43:57;;;;;;;3.05;1.48;;;;;;;;;;5069927;28;20048;-74
2023/03/12 05:46:29;;;;;;;2.90;1.20;;;;;;;;;;5069560;28;20044;-73
2023/03/12 05:49:01;;;;;;;2.85;1.20;;;;;;;;;;5068735;28;20052;-74
2023/03/12 05:51:34;;;;;;;4.80;1.20;;;;;;;;;;5069007;28;20063;-74
2023/03/12 05:54:05;;;;;;;2.22;1.33;;;;;;;;;;5069607;28;20051;-74
2023/03/12 05:56:36;;;;;;;5.50;1.30;;;;;;;;;;5088136;28;20044;-74
2023/03/12 05:59:09;;;;;;;1.50;1.10;;;;;;;;;;5069911;28;20387;-73
2023/03/12 06:01:42;;;;;;;2.00;1.30;;;;;;;;;;5069119;28;20048;-73
2023/03/12 06:04:13;;;;;;;5.25;1.15;;;;;;;;;;5069635;28;20391;-74
2023/03/12 06:06:43;;;;;;;2.85;1.20;;;;;;;;;;5068829;28;20052;-73
2023/03/12 06:09:14;;;;;;;3.95;1.30;;;;;;;;;;5068949;28;20043;-73
2023/03/12 06:11:44;;;;;;;8.25;1.65;;;;;;;;;;5088113;28;20047;-75
2023/03/12 06:14:15;;;;;;;2.35;1.38;;;;;;;;;;5068893;28;20040;-73
2023/03/12 06:16:45;;;;;;;3.80;1.40;;;;;;;;;;5069026;28;20048;-74
2023/03/12 06:19:16;;;;;;;1.73;1.20;;;;;;;;;;5068651;28;20056;-73
2023/03/12 06:21:50;;;;;;;3.03;1.73;;;;;;;;;;5068893;28;20067;-73
2023/03/12 06:24:20;;;;;;;7.97;1.63;;;;;;;;;;5069659;28;20051;-73
2023/03/12 06:26:55;;;;;;;4.55;1.38;;;;;;;;;;5069062;28;20055;-73
2023/03/12 06:29:26;;;;;;;5.75;1.48;;;;;;;;;;5069231;28;20051;-73
2023/03/12 06:31:56;;;;;;;3.33;1.23;;;;;;;;;;5087733;28;20040;-73
2023/03/12 06:34:26;;;;;;;3.05;1.00;;;;;;;;;;5086911;28;20048;-73
2023/03/12 06:36:56;;;;;;;2.17;1.13;;;;;;;;;;5069113;28;20048;-73
2023/03/12 06:39:28;;;;;;;1.30;1.20;;;;;;;;;;5070056;28;20560;-74
2023/03/12 06:42:00;;;;;;;3.42;1.02;;;;;;;;;;5086966;28;20043;-73
2023/03/12 06:44:32;;;;;;;1.48;1.30;;;;;;;;;;5068242;28;20055;-73
2023/03/12 06:47:04;;;;;;;8.15;1.20;;;;;;;;;;5086876;28;20055;-74
2023/03/12 06:49:35;;;;;;;6.68;1.60;;;;;;;;;;5087130;28;20490;-74
2023/03/12 06:52:06;;;;;;;4.00;1.33;;;;;;;;;;5086796;28;20048;-74
2023/03/12 06:54:36;;;;;;;2.88;0.90;;;;;;;;;;5087142;28;20051;-74
2023/03/12 06:57:07;;;;;;;1.20;1.10;;;;;;;;;;5086722;28;20040;-74
2023/03/12 06:59:36;;;;;;;3.95;1.60;;;;;;;;;;5086959;28;20067;-73
2023/03/12 07:02:11;;;;;;;1.65;0.95;;;;;;;;;;5086927;28;20502;-74
2023/03/12 07:04:42;;;;;;;5.20;1.70;;;;;;;;;;5086988;28;20431;-73
2023/03/12 07:07:13;;;;;;;2.40;1.20;;;;;;;;;;5086827;28;20048;-74
2023/03/12 07:09:43;;;;;;;1.50;1.38;;;;;;;;;;5086908;28;20054;-72
2023/03/12 07:12:14;;;;;;;3.00;1.45;;;;;;;;;;5086832;28;20064;-73
2023/03/12 07:14:44;;;;;;;1.42;1.13;;;;;;;;;;5086807;28;20055;-74
2023/03/12 07:17:14;;;;;;;1.33;1.15;;;;;;;;;;5085822;28;20048;-73
2023/03/12 07:19:44;;;;;;;2.30;1.08;;;;;;;;;;5086753;28;20507;-74
2023/03/12 07:22:18;;;;;;;5.93;1.23;;;;;;;;;;5086511;28;20044;-73
2023/03/12 07:24:50;;;;;;;7.60;1.42;;;;;;;;;;5068798;28;20539;-73
2023/03/12 07:27:20;;;;;;;3.08;1.45;;;;;;;;;;5086605;28;20407;-74
2023/03/12 07:29:51;;;;;;;3.05;1.27;;;;;;;;;;5086456;28;20044;-73
2023/03/12 07:32:22;;;;;;;5.18;1.20;;;;;;;;;;5086377;28;20055;-74
2023/03/12 07:34:53;;;;;;;1.80;1.48;;;;;;;;;;5086382;28;20040;-74
2023/03/12 07:37:23;;;;;;;3.80;1.35;;;;;;;;;;5086391;28;20039;-73
2023/03/12 07:39:54;;;;;;;1.70;1.02;;;;;;;;;;5086150;28;20419;-73
2023/03/12 07:42:25;;;;;;;3.40;1.60;;;;;;;;;;5086146;28;20044;-74
2023/03/12 07:44:57;;;;;;;5.15;1.60;;;;;;;;;;5070745;28;20059;-74
2023/03/12 07:47:27;;;;;;;3.88;1.00;;;;;;;;;;5089757;28;20388;-74
2023/03/12 07:50:00;;;;;;;3.42;1.33;;;;;;;;;;5090414;28;20529;-73
2023/03/12 07:52:31;;;;;;;1.60;1.48;;;;;;;;;;5090363;28;20114;-73
2023/03/12 07:55:01;;;;;;;2.30;1.40;;;;;;;;;;5072691;28;20055;-73
2023/03/12 07:57:32;;;;;;;2.70;2.03;;;;;;;;;;5090011;28;20055;-73
2023/03/12 08:00:06;;;;;;;4.35;1.88;;;;;;;;;;5090518;28;20044;-73
2023/03/12 08:02:39;;;;;;;2.72;1.63;;;;;;;;;;5092204;28;20044;-74
2023/03/12 08:05:10;;;;;;;5.05;2.00;;;;;;;;;;5089827;28;20051;-73
2023/03/12 08:07:41;;;;;;;3.28;2.00;;;;;;;;;;5089924;28;20056;-74
2023/03/12 08:10:12;;;;;;;8.90;2.13;;;;;;;;;;5089770;28;20048;-74
2023/03/12 08:12:42;;;;;;;5.18;1.90;;;;;;;;;;5071236;28;20067;-74
2023/03/12 08:15:13;;;;;;;5.28;1.40;;;;;;;;;;5071197;28;20060;-73
2023/03/12 08:17:44;;;;;;;4.80;2.17;;;;;;;;;;5090127;28;20048;-74
2023/03/12 08:20:14;;;;;;;4.15;1.50;;;;;;;;;;5072687;28;20052;-73
2023/03/12 08:22:44;;;;;;;7.10;1.80;;;;;;;;;;5089554;28;20051;-73
2023/03/12 08:25:14;;;;;;;6.80;1.45;;;;;;;;;;5089546;28;20044;-74
2023/03/12 08:27:47;;;;;;;2.42;1.73;;;;;;;;;;5089427;28;20036;-73
2023/03/12 08:30:17;;;;;;;4.18;1.42;;;;;;;;;;5071211;28;20074;-73
2023/03/12 08:32:47;;;;;;;1.60;1.30;;;;;;;;;;5089556;28;20479;-73
2023/03/12 08:35:18;;;;;;;7.20;1.85;;;;;;;;;;5089528;28;20044;-73
2023/03/12 08:37:48;;;;;;;3.10;1.88;;;;;;;;;;5071292;28;20063;-73
2023/03/12 08:40:19;;;;;;;2.45;1.80;;;;;;;;;;5089568;28;20047;-73
2023/03/12 08:42:50;;;;;;;2.78;1.58;;;;;;;;;;5089248;28;20047;-74
2023/03/12 08:45:19;;;;;;;3.70;1.88;;;;;;;;;;5089445;28;20044;-74
2023/03/12 08:47:50;;;;;;;2.50;1.58;;;;;;;;;;5089409;28;20044;-73
2023/03/12 08:50:24;;;;;;;2.92;1.95;;;;;;;;;;5088737;28;20533;-73
2023/03/12 08:52:55;;;;;;;3.88;1.55;;;;;;;;;;5088856;28;20067;-74
2023/03/12 08:55:29;;;;;;;3.65;1.80;;;;;;;;;;5087676;28;20399;-74
2023/03/12 08:57:59;;;;;;;3.55;1.67;;;;;;;;;;5089491;28;20490;-74
2023/03/12 09:00:31;;;;;;;1.77;1.63;;;;;;;;;;5088560;28;20517;-73
2023/03/12 09:03:01;;;;;;;1.83;1.20;;;;;;;;;;5088998;28;20048;-73
2023/03/12 09:05:32;;;;;;;3.65;1.38;;;;;;;;;;5088652;28;20406;-73
2023/03/12 09:08:04;;;;;;;2.05;1.60;;;;;;;;;;5088758;28;20040;-74
2023/03/12 09:10:37;;;;;;;2.63;1.60;;;;;;;;;;5089172;28;20040;-74
2023/03/12 09:13:07;;;;;;;1.83;1.45;;;;;;;;;;5089213;28;20048;-73
2023/03/12 09:15:37;;;;;;;2.13;1.35;;;;;;;;;;5088714;28;20048;-73
2023/03/12 09:18:07;;;;;;;4.03;1.30;;;;;;;;;;5070801;28;20058;-73
2023/03/12 09:20:37;;;;;;;2.03;1.50;;;;;;;;;;5088134;28;20058;-73
2023/03/12 09:23:08;;;;;;;3.67;1.38;;;;;;;;;;5088772;28;20380;-73
2023/03/12 09:25:38;;;;;;;6.93;2.00;;;;;;;;;;5088326;28;20074;-73
2023/03/12 09:28:08;;;;;;;6.75;1.92;;;;;;;;;;5088391;28;20410;-74
2023/03/12 09:30:39;;;;;;;2.38;1.85;;;;;;;;;;5088087;28;20048;-75
2023/03/12 09:33:10;;;;;;;5.72;2.33;;;;;;;;;;5088745;28;20809;-74
2023/03/12 09:35:40;;;;;;;2.63;1.80;;;;;;;;;;5088612;28;20040;-73
2023/03/12 09:38:14;;;;;;;2.08;1.55;;;;;;;;;;5070189;28;20056;-74
2023/03/12 09:40:46;;;;;;;6.65;2.15;;;;;;;;;;5088304;28;20029;-73
2023/03/12 09:43:31;;;;;;;3.58;1.80;;;;;;;;;;5087991;28;20052;-73
2023/03/12 09:46:08;;;;;;;3.83;1.60;;;;;;;;;;5087979;28;20419;-73
2023/03/12 09:48:40;;;;;;;3.45;1.70;;;;;;;;;;5087511;28;20048;-73
2023/03/12 09:51:35;;;;;;;4.30;1.75;;;;;;;;;;5087576;28;20375;-73
2023/03/12 09:54:13;;;;;;;2.80;1.80;;;;;;;;;;5087663;28;20058;-75
2023/03/12 09:56:43;;;;;;;9.57;3.15;;;;;;;;;;5087458;28;20044;-73
2023/03/12 09:59:14;;;;;;;8.35;3.35;;;;;;;;;;5088312;28;20049;-74
2023/03/12 10:01:54;;;;;;;4.00;2.45;;;;;;;;;;5088075;28;20047;-73
2023/03/12 10:05:11;;;;;;;3.40;2.30;;;;;;;;;;5087978;28;20040;-73
2023/03/12 10:07:56;;;;;;;3.72;2.00;;;;;;;;;;5004904;28;20061;-74
2023/03/12 10:10:40;;;;;;;3.33;2.40;;;;;;;;;;5083611;28;20044;-73
2023/03/12 10:13:21;;;;;;;8.65;2.53;;;;;;;;;;5086950;28;20110;-72
2023/03/12 10:16:20;;;;;;;2.75;2.15;;;;;;;;;;5087701;28;20059;-73
2023/03/12 10:19:21;;;;;;;3.20;2.08;;;;;;;;;;5087084;28;20054;-73
2023/03/12 10:22:13;;;;;;;6.00;2.65;;;;;;;;;;5082850;28;20529;-73
2023/03/12 10:25:00;;;;;;;3.70;2.67;;;;;;;;;;5088119;28;20055;-74
2023/03/12 10:27:35;;;;;;;3.47;2.30;;;;;;;;;;5087420;28;20044;-73
2023/03/12 10:30:25;;;;;;;9.60;2.40;;;;;;;;;;5087376;28;20047;-74
2023/03/12 10:33:03;;;;;;;3.03;1.70;;;;;;;;;;5087231;28;20074;-73
2023/03/12 10:35:33;;;;;;;4.72;2.47;;;;;;;;;;5087286;28;20048;-72
2023/03/12 10:38:09;;;;;;;2.72;1.80;;;;;;;;;;5087056;28;20060;-74
2023/03/12 10:40:40;;;;;;;2.92;1.52;;;;;;;;;;5068131;28;20059;-72
2023/03/12 10:43:10;;;;;;;4.35;2.13;;;;;;;;;;5087006;28;20052;-73
2023/03/12 10:46:00;;;;;;;4.40;1.70;;;;;;;;;;5086605;28;20044;-73
2023/03/12 10:48:32;;;;;;;2.05;1.42;;;;;;;;;;5087425;28;20048;-72
2023/03/12 10:51:12;;;;;;;4.10;1.42;;;;;;;;;;5086600;28;20044;-73
2023/03/12 10:53:46;;;;;;;3.67;1.60;;;;;;;;;;5086450;28;20415;-73
2023/03/12 10:56:19;;;;;;;4.82;1.30;;;;;;;;;;5085621;28;20067;-73
2023/03/12 10:58:52;;;;;;;4.47;1.55;;;;;;;;;;5086697;28;20071;-73
2023/03/12 11:01:29;;;;;;;10.50;1.77;;;;;;;;;;5086505;28;20075;-74
2023/03/12 11:04:26;;;;;;;10.30;1.95;;;;;;;;;;5069137;28;20039;-73
2023/03/12 11:07:15;;;;;;;1.73;1.25;;;;;;;;;;5086441;28;20422;-73
2023/03/12 11:10:02;;;;;;;1.80;1.02;;;;;;;;;;5086958;28;20040;-74
2023/03/12 11:12:35;;;;;;;4.10;0.98;;;;;;;;;;5086350;28;20047;-74
2023/03/12 11:15:19;;;;;;;3.63;0.90;;;;;;;;;;5087223;28;20122;-74
2023/03/12 11:17:50;;;;;;;3.55;0.93;;;;;;;;;;5086440;28;20044;-74
2023/03/12 11:20:29;;;;;;;2.88;1.00;;;;;;;;;;5085876;28;20514;-73
2023/03/12 11:23:17;;;;;;;5.50;0.85;;;;;;;;;;5086471;28;20044;-73
2023/03/12 11:25:55;;;;;;;2.08;1.10;;;;;;;;;;5086344;28;20048;-74
2023/03/12 11:28:39;;;;;;;3.70;1.10;;;;;;;;;;5086590;28;20040;-75
2023/03/12 11:31:19;;;;;;;2.05;1.50;;;;;;;;;;5086446;28;20406;-73
2023/03/12 11:33:52;;;;;;;3.22;1.10;;;;;;;;;;5069247;28;20055;-74
2023/03/12 11:36:39;;;;;;;2.00;1.20;;;;;;;;;;5086438;28;20525;-73
2023/03/12 11:39:30;;;;;;;2.67;1.20;;;;;;;;;;5086771;28;20048;-72
2023/03/12 11:42:30;;;;;;;1.95;1.00;;;;;;;;;;5086775;28;20044;-72
2023/03/12 11:45:15;;;;;;;3.78;1.50;;;;;;;;;;5086462;28;20040;-73
2023/03/12 11:48:23;;;;;;;4.40;1.58;;;;;;;;;;5068313;28;20052;-72
2023/03/12 11:51:17;;;;;;;5.13;1.30;;;;;;;;;;5068354;28;20060;-74
2023/03/12 11:53:50;;;;;;;4.75;1.60;;;;;;;;;;5086259;28;20044;-73
2023/03/12 11:56:33;;;;;;;2.08;1.50;;;;;;;;;;5085908;28;20048;-75
2023/03/12 11:59:11;;;;;;;2.10;1.15;;;;;;;;;;5086579;28;20051;-74
2023/03/12 12:02:36;;;;;;;3.85;1.10;;;;;;;;;;5086120;28;20055;-74
2023/03/12 12:05:43;;;;;;;3.15;0.93;;;;;;;;;;5078969;28;20063;-74
2023/03/12 12:08:45;;;;;;;2.90;0.90;;;;;;;;;;5086386;28;20052;-74
2023/03/12 12:11:36;;;;;;;2.85;1.00;;;;;;;;;;5078360;28;20522;-74
2023/03/12 12:14:18;;;;;;;4.10;0.95;;;;;;;;;;5085911;28;20048;-76
2023/03/12 12:16:51;;;;;;;3.20;1.42;;;;;;;;;;5086085;28;20048;-74
2023/03/12 12:19:58;;;;;;;2.65;0.95;;;;;;;;;;5085623;28;20047;-77
2023/03/12 12:22:36;;;;;;;1.17;0.80;;;;;;;;;;5086138;28;20040;-74
2023/03/12 12:25:49;;;;;;;1.73;0.82;;;;;;;;;;5086121;28;20158;-76
2023/03/12 12:28:54;;;;;;;2.42;1.20;;;;;;;;;;5015398;28;20064;-75
2023/03/12 12:31:48;;;;;;;0.80;0.63;;;;;;;;;;5064065;28;20083;-77
2023/03/12 12:34:40;;;;;;;1.95;0.77;;;;;;;;;;5089816;28;20545;-75
2023/03/12 12:37:36;;;;;;;2.75;0.93;;;;;;;;;;5090256;28;20044;-74
2023/03/12 12:40:17;;;;;;;1.23;0.75;;;;;;;;;;5089529;28;20052;-74
2023/03/12 12:42:54;;;;;;;2.60;0.80;;;;;;;;;;5088870;28;20393;-78
2023/03/12 12:45:27;;;;;;;2.05;0.90;;;;;;;;;;5089572;28;20047;-75
2023/03/12 12:48:27;;;;;;;;;;;;;;;;;;5071603;28;20533;-77
2023/03/12 12:50:59;;;;;;;2.35;0.73;;;;;;;;;;5087141;28;19924;-75
2023/03/12 12:53:38;;;;;;;4.43;1.08;;;;;;;;;;5089237;28;20074;-74
2023/03/12 12:56:38;;;;;;;3.25;0.77;;;;;;;;;;5089280;28;20040;-76
2023/03/12 12:59:27;;;;;;;4.82;1.00;;;;;;;;;;5089692;28;20044;-73
2023/03/12 13:02:00;;;;;;;4.50;1.10;;;;;;;;;;5089004;28;20040;-76
2023/03/12 13:04:35;;;;;;;2.05;0.90;;;;;;;;;;5088595;28;20047;-75
2023/03/12 13:07:11;;;;;;;2.63;0.90;;;;;;;;;;5088629;28;20044;-75
2023/03/12 13:09:46;;;;;;;1.67;0.80;;;;;;;;;;5088842;28;20430;-76
2023/03/12 13:12:31;;;;;;;7.22;1.35;;;;;;;;;;5089012;28;20048;-75
2023/03/12 13:15:22;;;;;;;9.07;0.90;;;;;;;;;;5089886;28;20044;-74
2023/03/12 13:17:52;;;;;;;10.00;1.10;;;;;;;;;;5088783;28;20044;-73
2023/03/12 13:20:31;;;;;;;1.30;0.65;;;;;;;;;;5089270;28;20051;-73
2023/03/12 13:23:20;;;;;;;3.92;1.10;;;;;;;;;;5088804;28;20052;-76
2023/03/12 13:26:14;;;;;;;2.45;1.02;;;;;;;;;;5088946;28;20058;-74
2023/03/12 13:28:54;;;;;;;3.33;0.80;;;;;;;;;;5088780;28;20513;-75
2023/03/12 13:31:42;;;;;;;4.25;0.85;;;;;;;;;;5088967;28;20499;-75
2023/03/12 13:34:18;;;;;;;2.20;0.80;;;;;;;;;;5069912;28;20047;-78
2023/03/12 13:36:51;;;;;;;4.45;0.95;;;;;;;;;;5088404;28;20048;-79
2023/03/12 13:39:44;;;;;;;5.32;1.50;;;;;;;;;;5069847;28;20048;-82
2023/03/12 13:42:24;;;;;;;4.25;0.80;;;;;;;;;;5087313;28;20106;-75
2023/03/12 13:44:55;;;;;;;2.55;1.02;;;;;;;;;;5070094;28;20055;-76
2023/03/12 13:47:41;;;;;;;2.28;0.70;;;;;;;;;;5069753;28;20055;-77
2023/03/12 13:50:13;;;;;;;;;;;;;;;;;;5088521;28;20438;-75
2023/03/12 13:53:03;;;;;;;4.35;1.40;;;;;;;;;;5069669;28;19928;-72
2023/03/12 13:55:36;;;;;;;2.88;1.20;;;;;;;;;;5088192;28;20040;-74
2023/03/12 13:58:16;;;;;;;2.60;1.00;;;;;;;;;;5088445;28;20063;-74
2023/03/12 14:01:01;;;;;;;2.33;1.00;;;;;;;;;;5088285;28;20036;-76
2023/03/12 14:03:36;;;;;;;3.63;0.82;;;;;;;;;;5087800;28;20043;-78
2023/03/12 14:06:16;;;;;;;3.47;1.02;;;;;;;;;;5088379;28;20415;-77
2023/03/12 14:09:22;;;;;;;2.45;1.00;;;;;;;;;;5087353;28;20044;-74
2023/03/12 14:12:16;;;;;;;1.30;0.95;;;;;;;;;;5077343;28;20048;-75
2023/03/12 14:15:05;;;;;;;2.05;0.77;;;;;;;;;;5069052;28;20051;-74
2023/03/12 14:17:37;;;;;;;1.15;0.82;;;;;;;;;;5087378;28;20044;-79
2023/03/12 14:20:27;;;;;;;3.92;1.00;;;;;;;;;;5087668;28;20039;-75
2023/03/12 14:23:04;;;;;;;3.13;1.05;;;;;;;;;;5068290;28;20067;-73
2023/03/12 14:25:39;;;;;;;4.65;0.85;;;;;;;;;;5068697;28;20052;-74
2023/03/12 14:28:23;;;;;;;3.67;0.60;;;;;;;;;;5088263;28;20055;-74
2023/03/12 14:31:06;;;;;;;4.38;0.82;;;;;;;;;;5087990;28;20040;-78
2023/03/12 14:34:02;;;;;;;1.48;0.68;;;;;;;;;;5087249;28;20048;-75
2023/03/12 14:36:43;;;;;;;2.50;0.90;;;;;;;;;;5087498;28;20040;-74
2023/03/12 14:39:27;;;;;;;1.15;0.73;;;;;;;;;;5087298;28;20059;-76
2023/03/12 14:42:05;;;;;;;5.15;1.10;;;;;;;;;;5087068;28;20490;-75
2023/03/12 14:44:38;;;;;;;3.05;1.00;;;;;;;;;;5086939;28;20589;-74
2023/03/12 14:47:16;;;;;;;2.92;0.90;;;;;;;;;;5087291;28;20040;-75
2023/03/12 14:49:47;;;;;;;2.45;0.85;;;;;;;;;;5087036;28;20059;-76
2023/03/12 14:52:33;;;;;;;2.78;0.98;;;;;;;;;;5086722;28;20052;-75
2023/03/12 14:55:12;;;;;;;4.03;0.98;;;;;;;;;;5087064;28;20056;-75
2023/03/12 14:57:42;;;;;;;2.55;0.90;;;;;;;;;;5086722;28;20036;-76
2023/03/12 15:00:24;;;;;;;2.35;0.90;;;;;;;;;;5086900;28;20043;-75
2023/03/12 15:02:58;;;;;;;9.55;1.20;;;;;;;;;;5086724;28;20050;-75
2023/03/12 15:05:30;;;;;;;2.85;0.73;;;;;;;;;;5085750;28;20056;-76
2023/03/12 15:08:03;;;;;;;2.10;0.90;;;;;;;;;;5086402;28;20051;-75
2023/03/12 15:10:34;;;;;;;2.40;0.80;;;;;;;;;;5086439;28;20407;-75
2023/03/12 15:13:04;;;;;;;1.55;0.70;;;;;;;;;;5086918;28;20052;-77
2023/03/12 15:15:43;;;;;;;2.78;0.90;;;;;;;;;;5086793;28;20044;-75
2023/03/12 15:18:20;;;;;;;3.47;1.10;;;;;;;;;;5084465;28;20525;-75
2023/03/12 15:20:52;;;;;;;3.55;0.80;;;;;;;;;;5066607;28;20039;-76
2023/03/12 15:23:32;;;;;;;2.53;1.00;;;;;;;;;;5065142;28;20051;-76
2023/03/12 15:26:19;;;;;;;2.15;1.00;;;;;;;;;;5049304;28;20056;-75
2023/03/12 15:29:00;;;;;;;3.17;0.90;;;;;;;;;;5066545;28;20058;-75
2023/03/12 15:31:41;;;;;;;3.10;1.10;;;;;;;;;;5065453;28;20071;-75
2023/03/12 15:34:38;;;;;;;2.40;1.20;;;;;;;;;;5050150;28;20052;-75